Главная страница
METAR-TAF:

METAR-TAF

Аэропорты :

Clearfield-Lawrence Airport

Clearfield, Пенсильвания, США

широта: 41-02-48N, долгота: 078-24-42W, высота над уровнем моря: 462 м

Текущие метеонаблюдения

Эта сводка был подготовлена 18 минут назад, в 06:54 UTC
Ветер 3 Узел от южный
Температура -10°C
Влажность 85%
Давление 1019 hPa
Видимость: 11.3 км
ясное небо

METAR: KFIG 100654Z AUTO 17003KT 7SM CLR M10/M12 A3010 RMK AO2 SLP216 I1000 T11001117

Время: 02:12 (07:12 UTC)


TAF: отсутствует

Метеонаблюдения и прогнозы для более 4000 аэропортов (сводки METAR и TAF).

Имеющиеся станции представлены на карте желтыми и красными точками.

Чтобы увидеть название станции, наведите на нее мышь.

Затем щелкните, чтобы увидеть метеонаблюдения и метеопрогнозы.

Управление картой: чтобы увеличить масштаб, щелкните зеленые кнопки с черным крестиком; чтобы уменьшить масштаб, щелкните зеленую кнопку с тире; для просмотра соседних карт щелкайте зеленые стрелки.


METAR-TAF: